sensor_id;sensor_type;location;lat;lon;timestamp;temperature;humidity
7240;DHT22;3661;53.288;10.458;2024-01-07T00:00:18;-1.60;99.90
7240;DHT22;3661;53.288;10.458;2024-01-07T00:02:50;-1.60;99.90
7240;DHT22;3661;53.288;10.458;2024-01-07T00:05:22;-1.60;99.90
7240;DHT22;3661;53.288;10.458;2024-01-07T00:11:25;-1.60;99.90
7240;DHT22;3661;53.288;10.458;2024-01-07T00:17:46;-1.60;99.90
7240;DHT22;3661;53.288;10.458;2024-01-07T00:20:26;-1.60;99.90
7240;DHT22;3661;53.288;10.458;2024-01-07T00:23:49;-1.60;99.90
7240;DHT22;3661;53.288;10.458;2024-01-07T00:27:06;-1.60;99.90
7240;DHT22;3661;53.288;10.458;2024-01-07T00:30:01;-1.60;99.90
7240;DHT22;3661;53.288;10.458;2024-01-07T00:32:49;-1.60;99.90
7240;DHT22;3661;53.288;10.458;2024-01-07T00:35:23;-1.60;99.90
7240;DHT22;3661;53.288;10.458;2024-01-07T00:38:18;-1.70;99.90
7240;DHT22;3661;53.288;10.458;2024-01-07T00:40:59;-1.60;99.90
7240;DHT22;3661;53.288;10.458;2024-01-07T00:43:51;-1.70;99.90
7240;DHT22;3661;53.288;10.458;2024-01-07T00:46:32;-1.70;99.90
7240;DHT22;3661;53.288;10.458;2024-01-07T00:49:16;-1.70;99.90
7240;DHT22;3661;53.288;10.458;2024-01-07T00:51:54;-1.70;99.90
7240;DHT22;3661;53.288;10.458;2024-01-07T00:54:26;-1.70;99.90
7240;DHT22;3661;53.288;10.458;2024-01-07T00:56:58;-1.70;99.90
7240;DHT22;3661;53.288;10.458;2024-01-07T00:59:31;-1.70;99.90
7240;DHT22;3661;53.288;10.458;2024-01-07T01:02:04;-1.70;99.90
7240;DHT22;3661;53.288;10.458;2024-01-07T01:04:39;-1.70;99.90
7240;DHT22;3661;53.288;10.458;2024-01-07T01:07:12;-1.70;99.90
7240;DHT22;3661;53.288;10.458;2024-01-07T01:09:44;-1.70;99.90
7240;DHT22;3661;53.288;10.458;2024-01-07T01:12:16;-1.80;99.90
7240;DHT22;3661;53.288;10.458;2024-01-07T01:14:50;-1.80;99.90
7240;DHT22;3661;53.288;10.458;2024-01-07T01:17:22;-1.70;99.90
7240;DHT22;3661;53.288;10.458;2024-01-07T01:19:54;-1.80;99.90
7240;DHT22;3661;53.288;10.458;2024-01-07T01:22:26;-1.80;99.90
7240;DHT22;3661;53.288;10.458;2024-01-07T01:24:58;-1.80;99.90
7240;DHT22;3661;53.288;10.458;2024-01-07T01:27:30;-1.80;99.90
7240;DHT22;3661;53.288;10.458;2024-01-07T01:30:04;-1.80;99.90
7240;DHT22;3661;53.288;10.458;2024-01-07T01:32:37;-1.80;99.90
7240;DHT22;3661;53.288;10.458;2024-01-07T01:35:10;-1.80;99.90
7240;DHT22;3661;53.288;10.458;2024-01-07T01:37:43;-1.80;99.90
7240;DHT22;3661;53.288;10.458;2024-01-07T01:40:16;-1.80;99.90
7240;DHT22;3661;53.288;10.458;2024-01-07T01:42:49;-1.80;99.90
7240;DHT22;3661;53.288;10.458;2024-01-07T01:45:22;-1.80;99.90
7240;DHT22;3661;53.288;10.458;2024-01-07T01:47:54;-1.90;99.90
7240;DHT22;3661;53.288;10.458;2024-01-07T01:50:27;-1.90;99.90
7240;DHT22;3661;53.288;10.458;2024-01-07T01:52:59;-1.90;99.90
7240;DHT22;3661;53.288;10.458;2024-01-07T01:55:31;-1.90;99.90
7240;DHT22;3661;53.288;10.458;2024-01-07T01:58:04;-1.90;99.90
7240;DHT22;3661;53.288;10.458;2024-01-07T02:00:39;-1.90;99.90
7240;DHT22;3661;53.288;10.458;2024-01-07T02:03:14;-1.90;99.90
7240;DHT22;3661;53.288;10.458;2024-01-07T02:05:48;-1.90;99.90
7240;DHT22;3661;53.288;10.458;2024-01-07T02:08:21;-1.90;99.90
7240;DHT22;3661;53.288;10.458;2024-01-07T02:10:53;-2.00;99.90
7240;DHT22;3661;53.288;10.458;2024-01-07T02:13:25;-2.00;99.90
7240;DHT22;3661;53.288;10.458;2024-01-07T02:16:01;-2.00;99.90
7240;DHT22;3661;53.288;10.458;2024-01-07T02:18:34;-2.00;99.90
7240;DHT22;3661;53.288;10.458;2024-01-07T02:21:07;-2.00;99.90
7240;DHT22;3661;53.288;10.458;2024-01-07T02:23:39;-2.00;99.90
7240;DHT22;3661;53.288;10.458;2024-01-07T02:26:13;-2.00;99.90
7240;DHT22;3661;53.288;10.458;2024-01-07T02:28:45;-2.00;99.90
7240;DHT22;3661;53.288;10.458;2024-01-07T02:31:18;-2.00;99.90
7240;DHT22;3661;53.288;10.458;2024-01-07T02:33:51;-2.10;99.90
7240;DHT22;3661;53.288;10.458;2024-01-07T02:36:23;-2.10;99.90
7240;DHT22;3661;53.288;10.458;2024-01-07T02:38:55;-2.10;99.90
7240;DHT22;3661;53.288;10.458;2024-01-07T02:41:29;-2.10;99.90
7240;DHT22;3661;53.288;10.458;2024-01-07T02:44:01;-2.10;99.90
7240;DHT22;3661;53.288;10.458;2024-01-07T02:46:33;-2.10;99.90
7240;DHT22;3661;53.288;10.458;2024-01-07T02:49:07;-2.20;99.90
7240;DHT22;3661;53.288;10.458;2024-01-07T02:51:39;-2.10;99.90
7240;DHT22;3661;53.288;10.458;2024-01-07T02:54:11;-2.20;99.90
7240;DHT22;3661;53.288;10.458;2024-01-07T02:56:45;-2.20;99.90
7240;DHT22;3661;53.288;10.458;2024-01-07T02:59:17;-2.20;99.90
7240;DHT22;3661;53.288;10.458;2024-01-07T03:01:49;-2.20;99.90
7240;DHT22;3661;53.288;10.458;2024-01-07T03:04:21;-2.20;99.90
7240;DHT22;3661;53.288;10.458;2024-01-07T03:06:53;-2.20;99.90
7240;DHT22;3661;53.288;10.458;2024-01-07T03:09:25;-2.20;99.90
7240;DHT22;3661;53.288;10.458;2024-01-07T03:11:58;-2.20;99.90
7240;DHT22;3661;53.288;10.458;2024-01-07T03:14:31;-2.20;99.90
7240;DHT22;3661;53.288;10.458;2024-01-07T03:17:04;-2.20;99.90
7240;DHT22;3661;53.288;10.458;2024-01-07T03:19:38;-2.30;99.90
7240;DHT22;3661;53.288;10.458;2024-01-07T03:22:10;-2.30;99.90
7240;DHT22;3661;53.288;10.458;2024-01-07T03:24:42;-2.30;99.90
7240;DHT22;3661;53.288;10.458;2024-01-07T03:27:15;-2.30;99.90
7240;DHT22;3661;53.288;10.458;2024-01-07T03:29:47;-2.30;99.90
7240;DHT22;3661;53.288;10.458;2024-01-07T03:32:19;-2.30;99.90
7240;DHT22;3661;53.288;10.458;2024-01-07T03:34:51;-2.30;99.90
7240;DHT22;3661;53.288;10.458;2024-01-07T03:37:24;-2.30;99.90
7240;DHT22;3661;53.288;10.458;2024-01-07T03:39:56;-2.30;99.90
7240;DHT22;3661;53.288;10.458;2024-01-07T03:42:29;-2.30;99.90
7240;DHT22;3661;53.288;10.458;2024-01-07T03:45:01;-2.30;99.90
7240;DHT22;3661;53.288;10.458;2024-01-07T03:47:34;-2.30;99.90
7240;DHT22;3661;53.288;10.458;2024-01-07T03:50:07;-2.30;99.90
7240;DHT22;3661;53.288;10.458;2024-01-07T03:52:39;-2.30;99.90
7240;DHT22;3661;53.288;10.458;2024-01-07T03:55:12;-2.30;99.90
7240;DHT22;3661;53.288;10.458;2024-01-07T03:57:45;-2.30;99.90
7240;DHT22;3661;53.288;10.458;2024-01-07T04:00:17;-2.30;99.90
7240;DHT22;3661;53.288;10.458;2024-01-07T04:02:49;-2.30;99.90
7240;DHT22;3661;53.288;10.458;2024-01-07T04:05:21;-2.30;99.90
7240;DHT22;3661;53.288;10.458;2024-01-07T04:07:54;-2.30;99.90
7240;DHT22;3661;53.288;10.458;2024-01-07T04:10:26;-2.30;99.90
7240;DHT22;3661;53.288;10.458;2024-01-07T04:12:59;-2.30;99.90
7240;DHT22;3661;53.288;10.458;2024-01-07T04:15:31;-2.30;99.90
7240;DHT22;3661;53.288;10.458;2024-01-07T04:18:04;-2.30;99.90
7240;DHT22;3661;53.288;10.458;2024-01-07T04:20:36;-2.30;99.90
7240;DHT22;3661;53.288;10.458;2024-01-07T04:23:08;-2.30;99.90
7240;DHT22;3661;53.288;10.458;2024-01-07T04:25:40;-2.30;99.90
7240;DHT22;3661;53.288;10.458;2024-01-07T04:28:16;-2.30;99.90
7240;DHT22;3661;53.288;10.458;2024-01-07T04:30:48;-2.30;99.90
7240;DHT22;3661;53.288;10.458;2024-01-07T04:33:20;-2.30;99.90
7240;DHT22;3661;53.288;10.458;2024-01-07T04:35:52;-2.30;99.90
7240;DHT22;3661;53.288;10.458;2024-01-07T04:38:28;-2.30;99.90
7240;DHT22;3661;53.288;10.458;2024-01-07T04:41:00;-2.30;99.90
7240;DHT22;3661;53.288;10.458;2024-01-07T04:43:33;-2.30;99.90
7240;DHT22;3661;53.288;10.458;2024-01-07T04:46:06;-2.20;99.90
7240;DHT22;3661;53.288;10.458;2024-01-07T04:48:38;-2.20;99.90
7240;DHT22;3661;53.288;10.458;2024-01-07T04:51:10;-2.20;99.90
7240;DHT22;3661;53.288;10.458;2024-01-07T04:53:42;-2.20;99.90
7240;DHT22;3661;53.288;10.458;2024-01-07T04:56:14;-2.20;99.90
7240;DHT22;3661;53.288;10.458;2024-01-07T04:58:48;-2.20;99.90
7240;DHT22;3661;53.288;10.458;2024-01-07T05:01:20;-2.20;99.90
7240;DHT22;3661;53.288;10.458;2024-01-07T05:03:52;-2.20;99.90
7240;DHT22;3661;53.288;10.458;2024-01-07T05:06:24;-2.20;99.90
7240;DHT22;3661;53.288;10.458;2024-01-07T05:08:56;-2.20;99.90
7240;DHT22;3661;53.288;10.458;2024-01-07T05:11:28;-2.20;99.90
7240;DHT22;3661;53.288;10.458;2024-01-07T05:14:01;-2.20;99.90
7240;DHT22;3661;53.288;10.458;2024-01-07T05:16:34;-2.20;99.90
7240;DHT22;3661;53.288;10.458;2024-01-07T05:19:06;-2.20;99.90
7240;DHT22;3661;53.288;10.458;2024-01-07T05:21:38;-2.20;99.90
7240;DHT22;3661;53.288;10.458;2024-01-07T05:24:10;-2.20;99.90
7240;DHT22;3661;53.288;10.458;2024-01-07T05:26:42;-2.20;99.90
7240;DHT22;3661;53.288;10.458;2024-01-07T05:29:19;-2.20;99.90
7240;DHT22;3661;53.288;10.458;2024-01-07T05:31:51;-2.20;99.90
7240;DHT22;3661;53.288;10.458;2024-01-07T05:34:23;-2.20;99.90
7240;DHT22;3661;53.288;10.458;2024-01-07T05:36:55;-2.20;99.90
7240;DHT22;3661;53.288;10.458;2024-01-07T05:39:27;-2.20;99.90
7240;DHT22;3661;53.288;10.458;2024-01-07T05:41:59;-2.20;99.90
7240;DHT22;3661;53.288;10.458;2024-01-07T05:44:32;-2.20;99.90
7240;DHT22;3661;53.288;10.458;2024-01-07T05:47:04;-2.20;99.90
7240;DHT22;3661;53.288;10.458;2024-01-07T05:49:37;-2.20;99.90
7240;DHT22;3661;53.288;10.458;2024-01-07T05:52:12;-2.20;99.90
7240;DHT22;3661;53.288;10.458;2024-01-07T05:54:44;-2.20;99.90
7240;DHT22;3661;53.288;10.458;2024-01-07T05:57:17;-2.20;99.90
7240;DHT22;3661;53.288;10.458;2024-01-07T05:59:51;-2.20;99.90
7240;DHT22;3661;53.288;10.458;2024-01-07T06:02:23;-2.10;99.90
7240;DHT22;3661;53.288;10.458;2024-01-07T06:04:55;-2.10;99.90
7240;DHT22;3661;53.288;10.458;2024-01-07T06:07:27;-2.10;99.90
7240;DHT22;3661;53.288;10.458;2024-01-07T06:10:00;-2.10;99.90
7240;DHT22;3661;53.288;10.458;2024-01-07T06:12:32;-2.10;99.90
7240;DHT22;3661;53.288;10.458;2024-01-07T06:15:07;-2.10;99.90
7240;DHT22;3661;53.288;10.458;2024-01-07T06:17:39;-2.10;99.90
7240;DHT22;3661;53.288;10.458;2024-01-07T06:20:11;-2.10;99.90
7240;DHT22;3661;53.288;10.458;2024-01-07T06:22:43;-2.10;99.90
7240;DHT22;3661;53.288;10.458;2024-01-07T06:25:15;-2.10;99.90
7240;DHT22;3661;53.288;10.458;2024-01-07T06:27:47;-2.00;99.90
7240;DHT22;3661;53.288;10.458;2024-01-07T06:30:21;-2.00;99.90
7240;DHT22;3661;53.288;10.458;2024-01-07T06:32:53;-2.00;99.90
7240;DHT22;3661;53.288;10.458;2024-01-07T06:35:25;-2.00;99.90
7240;DHT22;3661;53.288;10.458;2024-01-07T06:37:57;-2.00;99.90
7240;DHT22;3661;53.288;10.458;2024-01-07T06:40:29;-1.90;99.90
7240;DHT22;3661;53.288;10.458;2024-01-07T06:43:01;-2.00;99.90
7240;DHT22;3661;53.288;10.458;2024-01-07T06:45:35;-2.00;99.90
7240;DHT22;3661;53.288;10.458;2024-01-07T06:48:07;-1.90;99.90
7240;DHT22;3661;53.288;10.458;2024-01-07T06:50:39;-1.90;99.90
7240;DHT22;3661;53.288;10.458;2024-01-07T06:53:11;-1.90;99.90
7240;DHT22;3661;53.288;10.458;2024-01-07T06:55:43;-1.90;99.90
7240;DHT22;3661;53.288;10.458;2024-01-07T06:58:16;-1.90;99.90
7240;DHT22;3661;53.288;10.458;2024-01-07T07:00:49;-1.90;99.90
7240;DHT22;3661;53.288;10.458;2024-01-07T07:03:22;-1.90;99.90
7240;DHT22;3661;53.288;10.458;2024-01-07T07:05:54;-1.80;99.90
7240;DHT22;3661;53.288;10.458;2024-01-07T07:08:26;-1.90;99.90
7240;DHT22;3661;53.288;10.458;2024-01-07T07:10:58;-1.90;99.90
7240;DHT22;3661;53.288;10.458;2024-01-07T07:13:30;-1.80;99.90
7240;DHT22;3661;53.288;10.458;2024-01-07T07:16:05;-1.80;99.90
7240;DHT22;3661;53.288;10.458;2024-01-07T07:18:37;-1.80;99.90
7240;DHT22;3661;53.288;10.458;2024-01-07T07:21:09;-1.80;99.90
7240;DHT22;3661;53.288;10.458;2024-01-07T07:23:41;-1.80;99.90
7240;DHT22;3661;53.288;10.458;2024-01-07T07:26:16;-1.80;99.90
7240;DHT22;3661;53.288;10.458;2024-01-07T07:28:48;-1.80;99.90
7240;DHT22;3661;53.288;10.458;2024-01-07T07:31:21;-1.80;99.90
7240;DHT22;3661;53.288;10.458;2024-01-07T07:33:53;-1.80;99.90
7240;DHT22;3661;53.288;10.458;2024-01-07T07:36:26;-1.80;99.90
7240;DHT22;3661;53.288;10.458;2024-01-07T07:38:58;-1.80;99.90
7240;DHT22;3661;53.288;10.458;2024-01-07T07:41:30;-1.70;99.90
7240;DHT22;3661;53.288;10.458;2024-01-07T07:44:02;-1.70;99.90
7240;DHT22;3661;53.288;10.458;2024-01-07T07:46:35;-1.70;99.90
7240;DHT22;3661;53.288;10.458;2024-01-07T07:49:07;-1.70;99.90
7240;DHT22;3661;53.288;10.458;2024-01-07T07:51:40;-1.70;99.90
7240;DHT22;3661;53.288;10.458;2024-01-07T07:54:12;-1.70;99.90
7240;DHT22;3661;53.288;10.458;2024-01-07T07:56:44;-1.70;99.90
7240;DHT22;3661;53.288;10.458;2024-01-07T07:59:16;-1.70;99.90
7240;DHT22;3661;53.288;10.458;2024-01-07T08:01:49;-1.70;99.90
7240;DHT22;3661;53.288;10.458;2024-01-07T08:04:21;-1.70;99.90
7240;DHT22;3661;53.288;10.458;2024-01-07T08:06:53;-1.70;99.90
7240;DHT22;3661;53.288;10.458;2024-01-07T08:09:26;-1.70;99.90
7240;DHT22;3661;53.288;10.458;2024-01-07T08:11:59;-1.70;99.90
7240;DHT22;3661;53.288;10.458;2024-01-07T08:14:31;-1.60;99.90
7240;DHT22;3661;53.288;10.458;2024-01-07T08:17:05;-1.60;99.90
7240;DHT22;3661;53.288;10.458;2024-01-07T08:19:38;-1.60;99.90
7240;DHT22;3661;53.288;10.458;2024-01-07T08:22:10;-1.60;99.90
7240;DHT22;3661;53.288;10.458;2024-01-07T08:24:43;-1.60;99.90
7240;DHT22;3661;53.288;10.458;2024-01-07T08:27:15;-1.60;99.90
7240;DHT22;3661;53.288;10.458;2024-01-07T08:29:47;-1.60;99.90
7240;DHT22;3661;53.288;10.458;2024-01-07T08:32:21;-1.60;99.90
7240;DHT22;3661;53.288;10.458;2024-01-07T08:34:56;-1.60;99.90
7240;DHT22;3661;53.288;10.458;2024-01-07T08:37:29;-1.60;99.90
7240;DHT22;3661;53.288;10.458;2024-01-07T08:40:02;-1.60;99.90
7240;DHT22;3661;53.288;10.458;2024-01-07T08:42:34;-1.60;99.90
7240;DHT22;3661;53.288;10.458;2024-01-07T08:45:07;-1.60;99.90
7240;DHT22;3661;53.288;10.458;2024-01-07T08:47:41;-1.60;99.90
7240;DHT22;3661;53.288;10.458;2024-01-07T08:50:13;-1.60;99.90
7240;DHT22;3661;53.288;10.458;2024-01-07T08:52:46;-1.60;99.90
7240;DHT22;3661;53.288;10.458;2024-01-07T08:55:18;-1.60;99.90
7240;DHT22;3661;53.288;10.458;2024-01-07T08:57:51;-1.60;99.90
7240;DHT22;3661;53.288;10.458;2024-01-07T09:00:23;-1.60;99.90
7240;DHT22;3661;53.288;10.458;2024-01-07T09:02:59;-1.60;99.90
7240;DHT22;3661;53.288;10.458;2024-01-07T09:05:31;-1.60;99.90
7240;DHT22;3661;53.288;10.458;2024-01-07T09:08:04;-1.60;99.90
7240;DHT22;3661;53.288;10.458;2024-01-07T09:10:37;-1.60;99.90
7240;DHT22;3661;53.288;10.458;2024-01-07T09:13:09;-1.60;99.90
7240;DHT22;3661;53.288;10.458;2024-01-07T09:15:41;-1.60;99.90
7240;DHT22;3661;53.288;10.458;2024-01-07T09:18:15;-1.60;99.90
7240;DHT22;3661;53.288;10.458;2024-01-07T09:20:47;-1.60;99.90
7240;DHT22;3661;53.288;10.458;2024-01-07T09:23:20;-1.60;99.90
7240;DHT22;3661;53.288;10.458;2024-01-07T09:25:52;-1.60;99.90
7240;DHT22;3661;53.288;10.458;2024-01-07T09:28:24;-1.60;99.90
7240;DHT22;3661;53.288;10.458;2024-01-07T09:30:57;-1.60;99.90
7240;DHT22;3661;53.288;10.458;2024-01-07T09:33:30;-1.60;99.90
7240;DHT22;3661;53.288;10.458;2024-01-07T09:36:03;-1.60;99.90
7240;DHT22;3661;53.288;10.458;2024-01-07T09:38:37;-1.60;99.90
7240;DHT22;3661;53.288;10.458;2024-01-07T09:41:09;-1.60;99.90
7240;DHT22;3661;53.288;10.458;2024-01-07T09:43:44;-1.60;99.90
7240;DHT22;3661;53.288;10.458;2024-01-07T09:46:16;-1.60;99.90
7240;DHT22;3661;53.288;10.458;2024-01-07T09:48:50;-1.60;99.90
7240;DHT22;3661;53.288;10.458;2024-01-07T09:51:23;-1.60;99.90
7240;DHT22;3661;53.288;10.458;2024-01-07T09:53:58;-1.50;99.90
7240;DHT22;3661;53.288;10.458;2024-01-07T09:56:39;-1.50;99.90
7240;DHT22;3661;53.288;10.458;2024-01-07T09:59:13;-1.50;99.90
7240;DHT22;3661;53.288;10.458;2024-01-07T10:01:50;-1.50;99.90
7240;DHT22;3661;53.288;10.458;2024-01-07T10:04:25;-1.40;99.90
7240;DHT22;3661;53.288;10.458;2024-01-07T10:06:58;-1.40;99.90
7240;DHT22;3661;53.288;10.458;2024-01-07T10:09:32;-1.30;99.90
7240;DHT22;3661;53.288;10.458;2024-01-07T10:12:06;-1.30;99.90
7240;DHT22;3661;53.288;10.458;2024-01-07T10:14:38;-1.30;99.90
7240;DHT22;3661;53.288;10.458;2024-01-07T10:17:15;-1.30;99.90
7240;DHT22;3661;53.288;10.458;2024-01-07T10:19:49;-1.20;99.90
7240;DHT22;3661;53.288;10.458;2024-01-07T10:22:21;-1.20;99.90
7240;DHT22;3661;53.288;10.458;2024-01-07T10:24:54;-1.20;99.90
7240;DHT22;3661;53.288;10.458;2024-01-07T10:27:26;-1.10;99.90
7240;DHT22;3661;53.288;10.458;2024-01-07T10:29:59;-1.10;99.90
7240;DHT22;3661;53.288;10.458;2024-01-07T10:32:31;-1.10;99.90
7240;DHT22;3661;53.288;10.458;2024-01-07T10:35:05;-1.00;99.90
7240;DHT22;3661;53.288;10.458;2024-01-07T10:37:37;-1.00;99.90
7240;DHT22;3661;53.288;10.458;2024-01-07T10:40:11;-0.90;99.90
7240;DHT22;3661;53.288;10.458;2024-01-07T10:42:43;-0.90;99.90
7240;DHT22;3661;53.288;10.458;2024-01-07T10:45:16;-0.80;99.90
7240;DHT22;3661;53.288;10.458;2024-01-07T10:47:49;-0.80;99.90
7240;DHT22;3661;53.288;10.458;2024-01-07T10:50:24;-0.80;99.90
7240;DHT22;3661;53.288;10.458;2024-01-07T10:53:04;-0.70;99.90
7240;DHT22;3661;53.288;10.458;2024-01-07T10:55:39;-0.70;99.90
7240;DHT22;3661;53.288;10.458;2024-01-07T10:58:14;-0.70;99.90
7240;DHT22;3661;53.288;10.458;2024-01-07T11:00:47;-0.60;99.90
7240;DHT22;3661;53.288;10.458;2024-01-07T11:03:27;-0.60;99.90
7240;DHT22;3661;53.288;10.458;2024-01-07T11:06:05;-0.50;99.90
7240;DHT22;3661;53.288;10.458;2024-01-07T11:08:44;-0.50;99.90
7240;DHT22;3661;53.288;10.458;2024-01-07T11:11:21;-0.40;99.90
7240;DHT22;3661;53.288;10.458;2024-01-07T11:13:55;-0.40;99.90
7240;DHT22;3661;53.288;10.458;2024-01-07T11:16:41;-0.40;99.90
7240;DHT22;3661;53.288;10.458;2024-01-07T11:19:14;-0.30;99.90
7240;DHT22;3661;53.288;10.458;2024-01-07T11:21:47;-0.30;99.90
7240;DHT22;3661;53.288;10.458;2024-01-07T11:24:38;-0.30;99.90
7240;DHT22;3661;53.288;10.458;2024-01-07T11:27:11;-0.20;99.90
7240;DHT22;3661;53.288;10.458;2024-01-07T11:29:43;-0.20;99.90
7240;DHT22;3661;53.288;10.458;2024-01-07T11:32:17;-0.10;99.90
7240;DHT22;3661;53.288;10.458;2024-01-07T11:34:50;-0.10;99.90
7240;DHT22;3661;53.288;10.458;2024-01-07T11:37:25;-0.10;99.90
7240;DHT22;3661;53.288;10.458;2024-01-07T11:39:58;0.00;99.90
7240;DHT22;3661;53.288;10.458;2024-01-07T11:42:31;0.00;99.90
7240;DHT22;3661;53.288;10.458;2024-01-07T11:45:05;0.00;99.90
7240;DHT22;3661;53.288;10.458;2024-01-07T11:47:41;0.10;99.90
7240;DHT22;3661;53.288;10.458;2024-01-07T11:50:13;0.10;99.90
7240;DHT22;3661;53.288;10.458;2024-01-07T11:52:47;0.10;99.90
7240;DHT22;3661;53.288;10.458;2024-01-07T11:55:21;0.20;99.90
7240;DHT22;3661;53.288;10.458;2024-01-07T11:57:54;0.20;99.90
7240;DHT22;3661;53.288;10.458;2024-01-07T12:00:26;0.30;99.90
7240;DHT22;3661;53.288;10.458;2024-01-07T12:02:59;0.30;99.90
7240;DHT22;3661;53.288;10.458;2024-01-07T12:05:31;0.40;99.90
7240;DHT22;3661;53.288;10.458;2024-01-07T12:08:05;0.40;99.90
7240;DHT22;3661;53.288;10.458;2024-01-07T12:10:38;0.50;99.90
7240;DHT22;3661;53.288;10.458;2024-01-07T12:13:10;0.50;99.90
7240;DHT22;3661;53.288;10.458;2024-01-07T12:15:43;0.60;99.90
7240;DHT22;3661;53.288;10.458;2024-01-07T12:18:15;0.60;99.90
7240;DHT22;3661;53.288;10.458;2024-01-07T12:20:55;0.60;99.90
7240;DHT22;3661;53.288;10.458;2024-01-07T12:23:35;0.60;99.90
7240;DHT22;3661;53.288;10.458;2024-01-07T12:26:08;0.70;99.90
7240;DHT22;3661;53.288;10.458;2024-01-07T12:28:41;0.70;99.90
7240;DHT22;3661;53.288;10.458;2024-01-07T12:31:13;0.70;99.90
7240;DHT22;3661;53.288;10.458;2024-01-07T12:33:46;0.80;99.90
7240;DHT22;3661;53.288;10.458;2024-01-07T12:36:20;0.80;99.90
7240;DHT22;3661;53.288;10.458;2024-01-07T12:38:54;0.80;99.90
7240;DHT22;3661;53.288;10.458;2024-01-07T12:41:26;0.80;99.90
7240;DHT22;3661;53.288;10.458;2024-01-07T12:43:59;0.90;99.90
7240;DHT22;3661;53.288;10.458;2024-01-07T12:46:31;0.90;99.90
7240;DHT22;3661;53.288;10.458;2024-01-07T12:49:03;0.90;99.90
7240;DHT22;3661;53.288;10.458;2024-01-07T12:51:37;1.00;99.90
7240;DHT22;3661;53.288;10.458;2024-01-07T12:54:10;1.00;99.90
7240;DHT22;3661;53.288;10.458;2024-01-07T12:56:42;1.00;99.90
7240;DHT22;3661;53.288;10.458;2024-01-07T12:59:14;1.10;99.90
7240;DHT22;3661;53.288;10.458;2024-01-07T13:01:46;1.10;99.90
7240;DHT22;3661;53.288;10.458;2024-01-07T13:04:19;1.10;99.90
7240;DHT22;3661;53.288;10.458;2024-01-07T13:06:51;1.10;99.90
7240;DHT22;3661;53.288;10.458;2024-01-07T13:09:24;1.10;99.90
7240;DHT22;3661;53.288;10.458;2024-01-07T13:11:56;1.10;99.90
7240;DHT22;3661;53.288;10.458;2024-01-07T13:14:29;1.10;99.90
7240;DHT22;3661;53.288;10.458;2024-01-07T13:17:01;1.00;99.90
7240;DHT22;3661;53.288;10.458;2024-01-07T13:19:33;1.00;99.90
7240;DHT22;3661;53.288;10.458;2024-01-07T13:22:05;1.00;99.90
7240;DHT22;3661;53.288;10.458;2024-01-07T13:24:38;0.90;99.90
7240;DHT22;3661;53.288;10.458;2024-01-07T13:27:11;0.90;99.90
7240;DHT22;3661;53.288;10.458;2024-01-07T13:29:44;0.90;99.90
7240;DHT22;3661;53.288;10.458;2024-01-07T13:32:18;0.80;99.90
7240;DHT22;3661;53.288;10.458;2024-01-07T13:34:50;0.80;99.90
7240;DHT22;3661;53.288;10.458;2024-01-07T13:37:22;0.70;99.90
7240;DHT22;3661;53.288;10.458;2024-01-07T13:39:56;0.70;99.90
7240;DHT22;3661;53.288;10.458;2024-01-07T13:42:28;0.70;99.90
7240;DHT22;3661;53.288;10.458;2024-01-07T13:45:00;0.60;99.90
7240;DHT22;3661;53.288;10.458;2024-01-07T13:47:33;0.60;99.90
7240;DHT22;3661;53.288;10.458;2024-01-07T13:50:07;0.60;99.90
7240;DHT22;3661;53.288;10.458;2024-01-07T13:52:40;0.50;99.90
7240;DHT22;3661;53.288;10.458;2024-01-07T13:55:13;0.50;99.90
7240;DHT22;3661;53.288;10.458;2024-01-07T13:57:45;0.50;99.90
7240;DHT22;3661;53.288;10.458;2024-01-07T14:00:18;0.40;99.90
7240;DHT22;3661;53.288;10.458;2024-01-07T14:02:51;0.40;99.90
7240;DHT22;3661;53.288;10.458;2024-01-07T14:05:23;0.30;99.90
7240;DHT22;3661;53.288;10.458;2024-01-07T14:07:55;0.30;99.90
7240;DHT22;3661;53.288;10.458;2024-01-07T14:10:28;0.20;99.90
7240;DHT22;3661;53.288;10.458;2024-01-07T14:13:00;0.20;99.90
7240;DHT22;3661;53.288;10.458;2024-01-07T14:15:32;0.10;99.90
7240;DHT22;3661;53.288;10.458;2024-01-07T14:21:32;0.10;99.90
7240;DHT22;3661;53.288;10.458;2024-01-07T14:28:11;0.00;99.90
7240;DHT22;3661;53.288;10.458;2024-01-07T14:34:09;0.10;99.90
7240;DHT22;3661;53.288;10.458;2024-01-07T14:43:35;0.10;99.90
7240;DHT22;3661;53.288;10.458;2024-01-07T14:53:32;0.00;99.90
7240;DHT22;3661;53.288;10.458;2024-01-07T14:59:32;-0.10;99.90
7240;DHT22;3661;53.288;10.458;2024-01-07T15:05:31;-0.10;99.90
7240;DHT22;3661;53.288;10.458;2024-01-07T15:11:30;-0.20;99.90
7240;DHT22;3661;53.288;10.458;2024-01-07T15:17:30;-0.20;99.90
7240;DHT22;3661;53.288;10.458;2024-01-07T15:23:28;-0.30;99.90
7240;DHT22;3661;53.288;10.458;2024-01-07T15:29:33;-0.40;99.90
7240;DHT22;3661;53.288;10.458;2024-01-07T15:42:15;-0.60;99.90
7240;DHT22;3661;53.288;10.458;2024-01-07T15:48:14;-0.60;99.90
7240;DHT22;3661;53.288;10.458;2024-01-07T15:58:09;-0.70;99.90
7240;DHT22;3661;53.288;10.458;2024-01-07T16:04:08;-0.80;99.90
7240;DHT22;3661;53.288;10.458;2024-01-07T16:06:42;-0.80;99.90
7240;DHT22;3661;53.288;10.458;2024-01-07T16:09:16;-0.80;99.90
7240;DHT22;3661;53.288;10.458;2024-01-07T16:11:48;-0.80;99.90
7240;DHT22;3661;53.288;10.458;2024-01-07T16:14:21;-0.80;99.90
7240;DHT22;3661;53.288;10.458;2024-01-07T16:16:55;-0.90;99.90
7240;DHT22;3661;53.288;10.458;2024-01-07T16:19:31;-0.90;99.90
7240;DHT22;3661;53.288;10.458;2024-01-07T16:22:03;-0.90;99.90
7240;DHT22;3661;53.288;10.458;2024-01-07T16:24:41;-0.90;99.90
7240;DHT22;3661;53.288;10.458;2024-01-07T16:27:13;-1.00;99.90
7240;DHT22;3661;53.288;10.458;2024-01-07T16:29:46;-1.00;99.90
7240;DHT22;3661;53.288;10.458;2024-01-07T16:32:18;-1.00;99.90
7240;DHT22;3661;53.288;10.458;2024-01-07T16:34:51;-1.00;99.90
7240;DHT22;3661;53.288;10.458;2024-01-07T16:37:23;-1.00;99.90
7240;DHT22;3661;53.288;10.458;2024-01-07T16:39:57;-1.00;99.90
7240;DHT22;3661;53.288;10.458;2024-01-07T16:42:29;-1.10;99.90
7240;DHT22;3661;53.288;10.458;2024-01-07T16:45:04;-1.10;99.90
7240;DHT22;3661;53.288;10.458;2024-01-07T16:47:36;-1.10;99.90
7240;DHT22;3661;53.288;10.458;2024-01-07T16:50:08;-1.10;99.90
7240;DHT22;3661;53.288;10.458;2024-01-07T16:52:40;-1.10;99.90
7240;DHT22;3661;53.288;10.458;2024-01-07T16:55:12;-1.10;99.90
7240;DHT22;3661;53.288;10.458;2024-01-07T16:57:45;-1.20;99.90
7240;DHT22;3661;53.288;10.458;2024-01-07T17:00:19;-1.20;99.90
7240;DHT22;3661;53.288;10.458;2024-01-07T17:02:52;-1.20;99.90
7240;DHT22;3661;53.288;10.458;2024-01-07T17:05:25;-1.20;99.90
7240;DHT22;3661;53.288;10.458;2024-01-07T17:07:57;-1.30;99.90
7240;DHT22;3661;53.288;10.458;2024-01-07T17:10:29;-1.30;99.90
7240;DHT22;3661;53.288;10.458;2024-01-07T17:13:01;-1.20;99.90
7240;DHT22;3661;53.288;10.458;2024-01-07T17:15:35;-1.30;99.90
7240;DHT22;3661;53.288;10.458;2024-01-07T17:18:09;-1.30;99.90
7240;DHT22;3661;53.288;10.458;2024-01-07T17:20:41;-1.30;99.90
7240;DHT22;3661;53.288;10.458;2024-01-07T17:23:13;-1.30;99.90
7240;DHT22;3661;53.288;10.458;2024-01-07T17:25:48;-1.30;99.90
7240;DHT22;3661;53.288;10.458;2024-01-07T17:28:20;-1.30;99.90
7240;DHT22;3661;53.288;10.458;2024-01-07T17:30:53;-1.40;99.90
7240;DHT22;3661;53.288;10.458;2024-01-07T17:33:25;-1.40;99.90
7240;DHT22;3661;53.288;10.458;2024-01-07T17:35:57;-1.40;99.90
7240;DHT22;3661;53.288;10.458;2024-01-07T17:38:29;-1.40;99.90
7240;DHT22;3661;53.288;10.458;2024-01-07T17:41:01;-1.40;99.90
7240;DHT22;3661;53.288;10.458;2024-01-07T17:43:33;-1.40;99.90
7240;DHT22;3661;53.288;10.458;2024-01-07T17:46:08;-1.40;99.90